sensor_id;sensor_type;location;lat;lon;timestamp;P1;durP1;ratioP1;P2;durP2;ratioP2
19032;SDS011;9649;51.042;13.804;2023-02-08T00:01:22;65.47;;;28.73;;
19032;SDS011;9649;51.042;13.804;2023-02-08T00:06:26;64.90;;;27.90;;
19032;SDS011;9649;51.042;13.804;2023-02-08T00:11:28;60.53;;;26.97;;
19032;SDS011;9649;51.042;13.804;2023-02-08T00:16:32;62.10;;;27.30;;
19032;SDS011;9649;51.042;13.804;2023-02-08T00:21:35;58.93;;;26.87;;
19032;SDS011;9649;51.042;13.804;2023-02-08T00:26:38;56.53;;;25.40;;
19032;SDS011;9649;51.042;13.804;2023-02-08T00:31:42;58.40;;;25.80;;
19032;SDS011;9649;51.042;13.804;2023-02-08T00:36:45;59.43;;;24.50;;
19032;SDS011;9649;51.042;13.804;2023-02-08T00:41:47;57.37;;;24.73;;
19032;SDS011;9649;51.042;13.804;2023-02-08T00:46:51;52.33;;;23.60;;
19032;SDS011;9649;51.042;13.804;2023-02-08T00:51:55;51.37;;;23.90;;
19032;SDS011;9649;51.042;13.804;2023-02-08T00:56:57;53.83;;;24.70;;
19032;SDS011;9649;51.042;13.804;2023-02-08T01:02:01;57.17;;;23.47;;
19032;SDS011;9649;51.042;13.804;2023-02-08T01:07:05;61.87;;;23.73;;
19032;SDS011;9649;51.042;13.804;2023-02-08T01:12:08;52.13;;;24.27;;
19032;SDS011;9649;51.042;13.804;2023-02-08T01:17:12;55.33;;;24.80;;
19032;SDS011;9649;51.042;13.804;2023-02-08T01:22:14;58.13;;;25.57;;
19032;SDS011;9649;51.042;13.804;2023-02-08T01:27:17;60.80;;;26.50;;
19032;SDS011;9649;51.042;13.804;2023-02-08T01:32:21;56.17;;;25.63;;
19032;SDS011;9649;51.042;13.804;2023-02-08T01:37:24;63.53;;;24.80;;
19032;SDS011;9649;51.042;13.804;2023-02-08T01:42:26;60.70;;;25.67;;
19032;SDS011;9649;51.042;13.804;2023-02-08T01:47:30;57.27;;;24.27;;
19032;SDS011;9649;51.042;13.804;2023-02-08T01:52:33;58.47;;;24.60;;
19032;SDS011;9649;51.042;13.804;2023-02-08T01:57:36;54.90;;;23.23;;
19032;SDS011;9649;51.042;13.804;2023-02-08T02:02:41;54.90;;;24.80;;
19032;SDS011;9649;51.042;13.804;2023-02-08T02:07:47;58.93;;;23.30;;
19032;SDS011;9649;51.042;13.804;2023-02-08T02:12:51;53.63;;;22.53;;
19032;SDS011;9649;51.042;13.804;2023-02-08T02:17:57;53.50;;;23.03;;
19032;SDS011;9649;51.042;13.804;2023-02-08T02:23:11;52.87;;;22.47;;
19032;SDS011;9649;51.042;13.804;2023-02-08T02:34:06;56.23;;;23.27;;
19032;SDS011;9649;51.042;13.804;2023-02-08T02:39:16;48.17;;;21.80;;
19032;SDS011;9649;51.042;13.804;2023-02-08T02:44:26;55.87;;;22.97;;
19032;SDS011;9649;51.042;13.804;2023-02-08T02:49:38;56.87;;;22.80;;
19032;SDS011;9649;51.042;13.804;2023-02-08T02:54:48;53.33;;;22.30;;
19032;SDS011;9649;51.042;13.804;2023-02-08T02:59:53;54.93;;;22.47;;
19032;SDS011;9649;51.042;13.804;2023-02-08T03:04:57;52.50;;;22.27;;
19032;SDS011;9649;51.042;13.804;2023-02-08T03:10:02;51.37;;;22.00;;
19032;SDS011;9649;51.042;13.804;2023-02-08T03:15:14;46.47;;;22.53;;
19032;SDS011;9649;51.042;13.804;2023-02-08T03:20:27;53.03;;;22.37;;
19032;SDS011;9649;51.042;13.804;2023-02-08T03:25:33;50.00;;;22.40;;
19032;SDS011;9649;51.042;13.804;2023-02-08T03:30:50;47.73;;;21.23;;
19032;SDS011;9649;51.042;13.804;2023-02-08T03:36:01;56.87;;;22.53;;
19032;SDS011;9649;51.042;13.804;2023-02-08T03:41:08;53.50;;;22.00;;
19032;SDS011;9649;51.042;13.804;2023-02-08T03:46:13;52.30;;;21.23;;
19032;SDS011;9649;51.042;13.804;2023-02-08T03:51:23;49.07;;;21.07;;
19032;SDS011;9649;51.042;13.804;2023-02-08T03:56:30;57.90;;;22.73;;
19032;SDS011;9649;51.042;13.804;2023-02-08T04:01:40;51.50;;;20.77;;
19032;SDS011;9649;51.042;13.804;2023-02-08T04:06:47;51.90;;;21.97;;
19032;SDS011;9649;51.042;13.804;2023-02-08T04:11:50;48.27;;;19.97;;
19032;SDS011;9649;51.042;13.804;2023-02-08T04:16:52;51.57;;;21.47;;
19032;SDS011;9649;51.042;13.804;2023-02-08T04:21:57;51.83;;;20.90;;
19032;SDS011;9649;51.042;13.804;2023-02-08T04:26:59;55.43;;;22.27;;
19032;SDS011;9649;51.042;13.804;2023-02-08T04:32:05;50.90;;;21.37;;
19032;SDS011;9649;51.042;13.804;2023-02-08T04:37:13;54.30;;;22.57;;
19032;SDS011;9649;51.042;13.804;2023-02-08T04:42:15;53.97;;;21.97;;
19032;SDS011;9649;51.042;13.804;2023-02-08T04:47:18;51.93;;;21.27;;
19032;SDS011;9649;51.042;13.804;2023-02-08T04:52:22;56.53;;;21.77;;
19032;SDS011;9649;51.042;13.804;2023-02-08T04:57:25;51.27;;;22.20;;
19032;SDS011;9649;51.042;13.804;2023-02-08T05:02:27;53.20;;;22.27;;
19032;SDS011;9649;51.042;13.804;2023-02-08T05:07:31;53.00;;;21.50;;
19032;SDS011;9649;51.042;13.804;2023-02-08T05:12:34;53.97;;;23.23;;
19032;SDS011;9649;51.042;13.804;2023-02-08T05:17:37;56.77;;;23.20;;
19032;SDS011;9649;51.042;13.804;2023-02-08T05:22:41;57.37;;;22.80;;
19032;SDS011;9649;51.042;13.804;2023-02-08T05:27:44;55.77;;;22.33;;
19032;SDS011;9649;51.042;13.804;2023-02-08T05:32:47;63.73;;;22.60;;
19032;SDS011;9649;51.042;13.804;2023-02-08T05:37:51;60.77;;;22.87;;
19032;SDS011;9649;51.042;13.804;2023-02-08T05:42:54;60.73;;;23.00;;
19032;SDS011;9649;51.042;13.804;2023-02-08T05:47:57;56.50;;;23.07;;
19032;SDS011;9649;51.042;13.804;2023-02-08T05:53:01;58.70;;;22.53;;
19032;SDS011;9649;51.042;13.804;2023-02-08T05:58:03;64.10;;;23.07;;
19032;SDS011;9649;51.042;13.804;2023-02-08T06:03:06;58.80;;;23.90;;
19032;SDS011;9649;51.042;13.804;2023-02-08T06:08:12;67.23;;;24.53;;
19032;SDS011;9649;51.042;13.804;2023-02-08T06:13:15;69.50;;;23.87;;
19032;SDS011;9649;51.042;13.804;2023-02-08T06:18:18;69.57;;;23.37;;
19032;SDS011;9649;51.042;13.804;2023-02-08T06:23:22;58.03;;;22.50;;
19032;SDS011;9649;51.042;13.804;2023-02-08T06:28:25;62.60;;;23.03;;
19032;SDS011;9649;51.042;13.804;2023-02-08T06:33:28;61.53;;;24.50;;
19032;SDS011;9649;51.042;13.804;2023-02-08T06:38:32;57.90;;;23.37;;
19032;SDS011;9649;51.042;13.804;2023-02-08T06:43:35;62.33;;;23.47;;
19032;SDS011;9649;51.042;13.804;2023-02-08T06:48:38;55.50;;;23.50;;
19032;SDS011;9649;51.042;13.804;2023-02-08T06:53:42;68.60;;;24.50;;
19032;SDS011;9649;51.042;13.804;2023-02-08T06:58:44;66.63;;;24.83;;
19032;SDS011;9649;51.042;13.804;2023-02-08T07:03:47;65.20;;;26.30;;
19032;SDS011;9649;51.042;13.804;2023-02-08T07:08:51;63.73;;;24.63;;
19032;SDS011;9649;51.042;13.804;2023-02-08T07:13:54;64.27;;;24.93;;
19032;SDS011;9649;51.042;13.804;2023-02-08T07:18:56;65.07;;;25.80;;
19032;SDS011;9649;51.042;13.804;2023-02-08T07:24:00;71.67;;;28.03;;
19032;SDS011;9649;51.042;13.804;2023-02-08T07:29:03;62.90;;;25.80;;
19032;SDS011;9649;51.042;13.804;2023-02-08T07:34:06;55.73;;;22.63;;
19032;SDS011;9649;51.042;13.804;2023-02-08T07:39:10;57.00;;;22.87;;
19032;SDS011;9649;51.042;13.804;2023-02-08T07:44:13;53.03;;;23.37;;
19032;SDS011;9649;51.042;13.804;2023-02-08T07:49:15;49.17;;;20.57;;
19032;SDS011;9649;51.042;13.804;2023-02-08T07:54:19;55.40;;;21.53;;
19032;SDS011;9649;51.042;13.804;2023-02-08T07:59:22;51.53;;;21.57;;
19032;SDS011;9649;51.042;13.804;2023-02-08T08:04:25;48.47;;;20.70;;
19032;SDS011;9649;51.042;13.804;2023-02-08T08:09:29;48.67;;;20.07;;
19032;SDS011;9649;51.042;13.804;2023-02-08T08:14:32;50.03;;;20.33;;
19032;SDS011;9649;51.042;13.804;2023-02-08T08:19:34;49.23;;;20.53;;
19032;SDS011;9649;51.042;13.804;2023-02-08T08:24:38;53.03;;;21.77;;
19032;SDS011;9649;51.042;13.804;2023-02-08T08:29:41;52.27;;;22.23;;
19032;SDS011;9649;51.042;13.804;2023-02-08T08:34:44;47.27;;;20.47;;
19032;SDS011;9649;51.042;13.804;2023-02-08T08:39:48;44.40;;;20.00;;
19032;SDS011;9649;51.042;13.804;2023-02-08T08:44:51;48.40;;;20.33;;
19032;SDS011;9649;51.042;13.804;2023-02-08T08:49:53;40.73;;;19.80;;
19032;SDS011;9649;51.042;13.804;2023-02-08T08:54:57;43.93;;;20.67;;
19032;SDS011;9649;51.042;13.804;2023-02-08T09:00:00;43.70;;;18.80;;
19032;SDS011;9649;51.042;13.804;2023-02-08T09:05:04;40.63;;;18.00;;
19032;SDS011;9649;51.042;13.804;2023-02-08T09:10:09;36.50;;;17.03;;
19032;SDS011;9649;51.042;13.804;2023-02-08T09:15:12;42.33;;;18.40;;
19032;SDS011;9649;51.042;13.804;2023-02-08T09:20:15;37.07;;;17.53;;
19032;SDS011;9649;51.042;13.804;2023-02-08T09:25:19;38.83;;;16.60;;
19032;SDS011;9649;51.042;13.804;2023-02-08T09:30:22;37.13;;;16.67;;
19032;SDS011;9649;51.042;13.804;2023-02-08T09:35:24;35.03;;;15.70;;
19032;SDS011;9649;51.042;13.804;2023-02-08T09:40:30;31.57;;;15.30;;
19032;SDS011;9649;51.042;13.804;2023-02-08T09:45:40;35.17;;;16.67;;
19032;SDS011;9649;51.042;13.804;2023-02-08T09:51:01;37.53;;;15.77;;
19032;SDS011;9649;51.042;13.804;2023-02-08T09:56:29;30.07;;;14.30;;
19032;SDS011;9649;51.042;13.804;2023-02-08T10:01:59;36.07;;;15.53;;
19032;SDS011;9649;51.042;13.804;2023-02-08T10:07:45;32.53;;;16.23;;
19032;SDS011;9649;51.042;13.804;2023-02-08T10:13:17;32.27;;;16.87;;
19032;SDS011;9649;51.042;13.804;2023-02-08T10:18:43;33.03;;;16.90;;
19032;SDS011;9649;51.042;13.804;2023-02-08T10:24:33;31.20;;;16.07;;
19032;SDS011;9649;51.042;13.804;2023-02-08T10:36:40;34.40;;;16.83;;
19032;SDS011;9649;51.042;13.804;2023-02-08T10:41:45;31.57;;;17.13;;
19032;SDS011;9649;51.042;13.804;2023-02-08T10:46:55;29.73;;;16.83;;
19032;SDS011;9649;51.042;13.804;2023-02-08T10:52:10;32.67;;;16.03;;
19032;SDS011;9649;51.042;13.804;2023-02-08T10:57:17;31.07;;;16.37;;
19032;SDS011;9649;51.042;13.804;2023-02-08T11:02:33;29.27;;;14.53;;
19032;SDS011;9649;51.042;13.804;2023-02-08T11:07:41;30.40;;;15.13;;
19032;SDS011;9649;51.042;13.804;2023-02-08T11:12:52;28.37;;;14.90;;
19032;SDS011;9649;51.042;13.804;2023-02-08T11:17:58;28.03;;;15.23;;
19032;SDS011;9649;51.042;13.804;2023-02-08T11:23:15;28.70;;;14.57;;
19032;SDS011;9649;51.042;13.804;2023-02-08T11:28:26;34.40;;;16.20;;
19032;SDS011;9649;51.042;13.804;2023-02-08T11:33:32;30.30;;;13.17;;
19032;SDS011;9649;51.042;13.804;2023-02-08T11:38:39;27.90;;;14.90;;
19032;SDS011;9649;51.042;13.804;2023-02-08T11:43:49;34.63;;;15.90;;
19032;SDS011;9649;51.042;13.804;2023-02-08T11:55:20;27.47;;;14.10;;
19032;SDS011;9649;51.042;13.804;2023-02-08T12:00:26;32.43;;;14.10;;
19032;SDS011;9649;51.042;13.804;2023-02-08T12:05:35;30.27;;;14.33;;
19032;SDS011;9649;51.042;13.804;2023-02-08T12:11:27;26.37;;;13.90;;
19032;SDS011;9649;51.042;13.804;2023-02-08T12:16:43;26.60;;;13.63;;
19032;SDS011;9649;51.042;13.804;2023-02-08T12:21:56;26.90;;;13.73;;
19032;SDS011;9649;51.042;13.804;2023-02-08T12:27:10;26.77;;;13.70;;
19032;SDS011;9649;51.042;13.804;2023-02-08T12:32:31;23.93;;;12.33;;
19032;SDS011;9649;51.042;13.804;2023-02-08T12:37:43;25.87;;;11.40;;
19032;SDS011;9649;51.042;13.804;2023-02-08T12:43:12;24.07;;;11.60;;
19032;SDS011;9649;51.042;13.804;2023-02-08T12:48:39;20.80;;;10.70;;
19032;SDS011;9649;51.042;13.804;2023-02-08T12:53:54;22.93;;;11.70;;
19032;SDS011;9649;51.042;13.804;2023-02-08T12:59:01;21.47;;;10.30;;
19032;SDS011;9649;51.042;13.804;2023-02-08T13:04:15;22.73;;;11.30;;
19032;SDS011;9649;51.042;13.804;2023-02-08T13:09:24;27.47;;;10.93;;
19032;SDS011;9649;51.042;13.804;2023-02-08T13:14:40;24.83;;;10.20;;
19032;SDS011;9649;51.042;13.804;2023-02-08T13:19:48;23.40;;;11.80;;
19032;SDS011;9649;51.042;13.804;2023-02-08T13:25:01;24.43;;;11.17;;
19032;SDS011;9649;51.042;13.804;2023-02-08T13:30:15;23.83;;;11.93;;
19032;SDS011;9649;51.042;13.804;2023-02-08T13:35:23;28.03;;;12.27;;
19032;SDS011;9649;51.042;13.804;2023-02-08T13:40:29;25.53;;;13.10;;
19032;SDS011;9649;51.042;13.804;2023-02-08T13:45:44;28.40;;;12.27;;
19032;SDS011;9649;51.042;13.804;2023-02-08T13:50:53;27.07;;;12.53;;
19032;SDS011;9649;51.042;13.804;2023-02-08T13:55:57;24.53;;;12.87;;
19032;SDS011;9649;51.042;13.804;2023-02-08T14:01:11;24.93;;;12.40;;
19032;SDS011;9649;51.042;13.804;2023-02-08T14:06:18;24.73;;;11.90;;
19032;SDS011;9649;51.042;13.804;2023-02-08T14:11:29;28.10;;;12.40;;
19032;SDS011;9649;51.042;13.804;2023-02-08T14:16:43;23.57;;;10.90;;
19032;SDS011;9649;51.042;13.804;2023-02-08T14:21:47;22.37;;;10.83;;
19032;SDS011;9649;51.042;13.804;2023-02-08T14:27:04;19.37;;;8.67;;
19032;SDS011;9649;51.042;13.804;2023-02-08T14:32:18;24.03;;;10.90;;
19032;SDS011;9649;51.042;13.804;2023-02-08T14:37:26;24.63;;;11.50;;
19032;SDS011;9649;51.042;13.804;2023-02-08T14:42:53;21.13;;;10.50;;
19032;SDS011;9649;51.042;13.804;2023-02-08T14:48:00;22.17;;;11.13;;
19032;SDS011;9649;51.042;13.804;2023-02-08T14:53:20;23.87;;;10.87;;
19032;SDS011;9649;51.042;13.804;2023-02-08T14:58:27;25.67;;;11.53;;
19032;SDS011;9649;51.042;13.804;2023-02-08T15:03:33;25.83;;;11.73;;
19032;SDS011;9649;51.042;13.804;2023-02-08T15:08:36;27.60;;;11.77;;
19032;SDS011;9649;51.042;13.804;2023-02-08T15:13:39;22.60;;;11.07;;
19032;SDS011;9649;51.042;13.804;2023-02-08T15:18:45;22.43;;;11.20;;
19032;SDS011;9649;51.042;13.804;2023-02-08T15:24:00;24.73;;;10.63;;
19032;SDS011;9649;51.042;13.804;2023-02-08T15:29:14;23.53;;;11.17;;
19032;SDS011;9649;51.042;13.804;2023-02-08T15:34:27;23.43;;;12.00;;
19032;SDS011;9649;51.042;13.804;2023-02-08T15:39:31;23.80;;;11.40;;
19032;SDS011;9649;51.042;13.804;2023-02-08T15:44:40;24.10;;;11.63;;
19032;SDS011;9649;51.042;13.804;2023-02-08T15:49:46;25.50;;;12.07;;
19032;SDS011;9649;51.042;13.804;2023-02-08T15:54:53;29.63;;;13.13;;
19032;SDS011;9649;51.042;13.804;2023-02-08T15:59:56;35.43;;;15.63;;
19032;SDS011;9649;51.042;13.804;2023-02-08T16:05:10;28.03;;;12.60;;
19032;SDS011;9649;51.042;13.804;2023-02-08T16:10:23;25.40;;;12.60;;
19032;SDS011;9649;51.042;13.804;2023-02-08T16:15:37;24.47;;;13.10;;
19032;SDS011;9649;51.042;13.804;2023-02-08T16:20:44;22.87;;;12.33;;
19032;SDS011;9649;51.042;13.804;2023-02-08T16:26:08;25.83;;;11.33;;
19032;SDS011;9649;51.042;13.804;2023-02-08T16:31:14;27.57;;;12.60;;
19032;SDS011;9649;51.042;13.804;2023-02-08T16:36:24;24.43;;;11.73;;
19032;SDS011;9649;51.042;13.804;2023-02-08T16:41:55;24.70;;;11.07;;
19032;SDS011;9649;51.042;13.804;2023-02-08T16:47:23;25.77;;;12.13;;
19032;SDS011;9649;51.042;13.804;2023-02-08T16:52:29;26.43;;;11.97;;
19032;SDS011;9649;51.042;13.804;2023-02-08T16:57:38;27.27;;;12.37;;
19032;SDS011;9649;51.042;13.804;2023-02-08T17:02:42;26.07;;;12.67;;
19032;SDS011;9649;51.042;13.804;2023-02-08T17:07:47;28.43;;;13.33;;
19032;SDS011;9649;51.042;13.804;2023-02-08T17:12:51;28.77;;;13.40;;
19032;SDS011;9649;51.042;13.804;2023-02-08T17:18:15;35.33;;;14.23;;
19032;SDS011;9649;51.042;13.804;2023-02-08T17:23:19;32.77;;;13.83;;
19032;SDS011;9649;51.042;13.804;2023-02-08T17:28:22;29.33;;;13.57;;
19032;SDS011;9649;51.042;13.804;2023-02-08T17:33:25;29.10;;;14.13;;
19032;SDS011;9649;51.042;13.804;2023-02-08T17:38:30;30.80;;;13.27;;
19032;SDS011;9649;51.042;13.804;2023-02-08T17:43:33;26.93;;;13.33;;
19032;SDS011;9649;51.042;13.804;2023-02-08T17:48:37;29.80;;;14.03;;
19032;SDS011;9649;51.042;13.804;2023-02-08T17:53:42;32.23;;;15.23;;
19032;SDS011;9649;51.042;13.804;2023-02-08T17:58:45;42.87;;;18.47;;
19032;SDS011;9649;51.042;13.804;2023-02-08T18:03:53;43.73;;;18.77;;
19032;SDS011;9649;51.042;13.804;2023-02-08T18:08:58;41.57;;;19.97;;
19032;SDS011;9649;51.042;13.804;2023-02-08T18:14:01;40.50;;;18.80;;
19032;SDS011;9649;51.042;13.804;2023-02-08T18:19:04;34.00;;;16.23;;
19032;SDS011;9649;51.042;13.804;2023-02-08T18:24:08;39.60;;;17.03;;
19032;SDS011;9649;51.042;13.804;2023-02-08T18:29:11;34.47;;;14.97;;
19032;SDS011;9649;51.042;13.804;2023-02-08T18:34:15;32.30;;;14.63;;
19032;SDS011;9649;51.042;13.804;2023-02-08T18:39:20;38.07;;;13.30;;
19032;SDS011;9649;51.042;13.804;2023-02-08T18:44:24;35.17;;;14.40;;
19032;SDS011;9649;51.042;13.804;2023-02-08T18:49:27;35.50;;;14.43;;
19032;SDS011;9649;51.042;13.804;2023-02-08T18:54:31;29.80;;;13.67;;
19032;SDS011;9649;51.042;13.804;2023-02-08T18:59:34;31.03;;;14.27;;
19032;SDS011;9649;51.042;13.804;2023-02-08T19:04:37;32.13;;;14.40;;
19032;SDS011;9649;51.042;13.804;2023-02-08T19:09:41;37.33;;;16.47;;
19032;SDS011;9649;51.042;13.804;2023-02-08T19:14:46;36.17;;;15.77;;
19032;SDS011;9649;51.042;13.804;2023-02-08T19:19:50;38.33;;;15.27;;
19032;SDS011;9649;51.042;13.804;2023-02-08T19:24:54;36.17;;;15.43;;
19032;SDS011;9649;51.042;13.804;2023-02-08T19:29:59;37.80;;;14.93;;
19032;SDS011;9649;51.042;13.804;2023-02-08T19:35:02;38.00;;;14.10;;
19032;SDS011;9649;51.042;13.804;2023-02-08T19:40:07;30.07;;;13.53;;
19032;SDS011;9649;51.042;13.804;2023-02-08T19:45:12;28.83;;;13.40;;
19032;SDS011;9649;51.042;13.804;2023-02-08T19:50:18;35.13;;;14.10;;
19032;SDS011;9649;51.042;13.804;2023-02-08T19:55:23;30.63;;;13.43;;
19032;SDS011;9649;51.042;13.804;2023-02-08T20:00:29;31.47;;;12.50;;
19032;SDS011;9649;51.042;13.804;2023-02-08T20:05:34;30.23;;;12.57;;
19032;SDS011;9649;51.042;13.804;2023-02-08T20:10:38;28.67;;;12.03;;
19032;SDS011;9649;51.042;13.804;2023-02-08T20:15:43;26.80;;;11.20;;
19032;SDS011;9649;51.042;13.804;2023-02-08T20:20:56;29.17;;;11.27;;
19032;SDS011;9649;51.042;13.804;2023-02-08T20:26:06;26.77;;;11.30;;
19032;SDS011;9649;51.042;13.804;2023-02-08T20:31:12;26.77;;;11.37;;
19032;SDS011;9649;51.042;13.804;2023-02-08T20:36:19;25.10;;;11.13;;
19032;SDS011;9649;51.042;13.804;2023-02-08T20:41:25;26.50;;;11.83;;
19032;SDS011;9649;51.042;13.804;2023-02-08T20:46:32;24.33;;;10.63;;
19032;SDS011;9649;51.042;13.804;2023-02-08T20:51:37;27.73;;;10.17;;
19032;SDS011;9649;51.042;13.804;2023-02-08T20:56:42;22.27;;;10.00;;
19032;SDS011;9649;51.042;13.804;2023-02-08T21:01:47;24.20;;;10.40;;
19032;SDS011;9649;51.042;13.804;2023-02-08T21:06:50;24.07;;;9.60;;
19032;SDS011;9649;51.042;13.804;2023-02-08T21:11:57;19.50;;;9.73;;
19032;SDS011;9649;51.042;13.804;2023-02-08T21:17:01;20.43;;;8.07;;
19032;SDS011;9649;51.042;13.804;2023-02-08T21:22:05;20.93;;;9.00;;
19032;SDS011;9649;51.042;13.804;2023-02-08T21:27:11;16.47;;;7.60;;
19032;SDS011;9649;51.042;13.804;2023-02-08T22:21:30;15.87;;;7.03;;
19032;SDS011;9649;51.042;13.804;2023-02-08T22:26:33;16.67;;;7.27;;
19032;SDS011;9649;51.042;13.804;2023-02-08T22:31:36;18.43;;;7.63;;
19032;SDS011;9649;51.042;13.804;2023-02-08T22:36:41;17.50;;;7.37;;
19032;SDS011;9649;51.042;13.804;2023-02-08T22:41:43;16.40;;;7.57;;
19032;SDS011;9649;51.042;13.804;2023-02-08T22:46:46;19.63;;;8.60;;
19032;SDS011;9649;51.042;13.804;2023-02-08T22:51:50;19.47;;;7.30;;
19032;SDS011;9649;51.042;13.804;2023-02-08T22:56:53;18.17;;;7.90;;
19032;SDS011;9649;51.042;13.804;2023-02-08T23:01:55;17.10;;;7.30;;
19032;SDS011;9649;51.042;13.804;2023-02-08T23:07:00;15.87;;;7.37;;
19032;SDS011;9649;51.042;13.804;2023-02-08T23:12:02;18.27;;;8.37;;
19032;SDS011;9649;51.042;13.804;2023-02-08T23:17:05;15.57;;;7.43;;
19032;SDS011;9649;51.042;13.804;2023-02-08T23:22:09;20.27;;;7.70;;
19032;SDS011;9649;51.042;13.804;2023-02-08T23:27:12;16.70;;;7.43;;
19032;SDS011;9649;51.042;13.804;2023-02-08T23:32:15;16.13;;;7.30;;
19032;SDS011;9649;51.042;13.804;2023-02-08T23:37:19;17.97;;;8.20;;
19032;SDS011;9649;51.042;13.804;2023-02-08T23:42:22;20.20;;;7.80;;
19032;SDS011;9649;51.042;13.804;2023-02-08T23:47:27;17.17;;;7.90;;
19032;SDS011;9649;51.042;13.804;2023-02-08T23:52:33;19.67;;;7.77;;
19032;SDS011;9649;51.042;13.804;2023-02-08T23:57:36;18.67;;;7.63;;
